Terminal Aerodrome Forecast
Issued by NWS Charleston, WV

Current Version | Previous Version | Text Only | Print | Product List | Glossary Off
Versions: 1 2 3 4 5 6 7 8 9 10 11 12 13 14 15 16 17 18 19 20 21 22

000
FTUS41 KRLX 272300
TAFPKB
TAF
KPKB 272335Z 2800/2824 18006KT 6SM HZ SCT140 BKN250
     FM281300 20009G16KT P6SM SCT060
     FM281500 21014G25KT P6SM SCT050
     FM282200 22009G15KT 4SM SHRA BR BKN030=

USA.gov is the U.S. government's official web portal to all federal, state and local government web resources and services.